IW2NIA-3 Weather Reports


Display with metric or nautical units.
time (UTC)temp
F
wind
direction
speed
MPH
gust
MPH
rain 1hr
in
rain 24hr
in
rain mn
in
humidity
%
barometer
mb
20240615080417 64 170 1.0 5.0 0.00 0.23 0.23 91 1010.8
20240615074916 63 215 2.0 7.0 0.00 0.23 0.23 92 1010.7
20240615073413 63 201 1.0 6.0 0.00 0.23 0.23 92 1010.7
20240615071910 63 144 2.0 6.0 0.00 0.23 0.23 93 1010.8
20240615070404 62 173 1.0 5.0 0.00 0.23 0.23 93 1011.0
20240615064916 62 138 2.0 5.0 0.00 0.23 0.23 94 1010.9
20240615063412 62 138 4.0 6.0 0.00 0.23 0.23 94 1010.8
20240615061917 62 175 1.0 4.0 0.00 0.23 0.23 94 1010.7
20240615060403 62 131 3.0 4.0 0.00 0.23 0.23 94 1010.7
20240615054904 61 123 1.0 4.0 0.00 0.23 0.23 94 1010.7
20240615053405 61 147 2.0 4.0 0.00 0.23 0.23 94 1010.5
20240615051921 61 153 1.0 4.0 0.00 0.23 0.23 94 1010.6
20240615050402 61 184 1.0 7.0 0.00 0.23 0.23 94 1010.7
20240615044919 61 198 1.0 5.0 0.00 0.23 0.23 94 1010.9
20240615043413 61 139 3.0 6.0 0.00 0.23 0.23 94 1011.1
20240615041913 61 157 1.0 4.0 0.00 0.23 0.23 94 1011.2
20240615040414 61 175 2.0 4.0 0.00 0.23 0.23 95 1011.2
20240615034914 61 143 2.0 5.0 0.00 0.23 0.23 95 1011.0
20240615033359 61 115 0.0 3.0 0.00 0.23 0.23 94 1011.3
20240615031902 61 113 0.0 5.0 0.00 0.23 0.23 94 1011.3
20240615030400 61 102 3.0 5.0 0.00 0.23 0.23 94 1011.4
20240615024920 61 121 4.0 5.0 0.00 0.23 0.23 95 1011.6
20240615023416 61 103 4.0 5.0 0.00 0.23 0.23 95 1011.6
20240615021913 62 98 2.0 6.0 0.01 0.23 0.23 95 1011.8
20240615020404 61 111 3.0 7.0 0.01 0.23 0.23 94 1012.0
20240615014903 62 88 4.0 8.0 0.01 0.23 0.23 94 1012.1
20240615013420 62 109 3.0 6.0 0.01 0.23 0.23 94 1012.4
20240615011917 62 120 4.0 5.0 0.01 0.22 0.22 94 1012.6
20240615010414 62 123 2.0 4.0 0.02 0.22 0.22 93 1012.8
20240615004912 62 105 2.0 4.0 0.03 0.22 0.22 93 1013.0
20240615003411 62 104 3.0 5.0 0.06 0.22 0.22 93 1013.1
20240615001916 62 92 1.0 5.0 0.14 0.21 0.21 92 1013.3
20240615000410 62 111 3.0 5.0 0.20 0.20 0.20 91 1013.4
20240614234904 62 118 3.0 4.0 0.19 0.19 0.19 91 1013.5
20240614233406 62 127 0.0 0.0 0.16 0.16 0.16 89 1013.7
20240614231904 63 126 3.0 5.0 0.07 0.07 0.07 88 1013.7
20240614230407 63 37 0.0 3.0 0.01 0.01 0.01 86 1013.8
20240614224906 63 37 0.0 2.0 0.00 0.00 0.00 86 1013.9
20240614223411 63 37 0.0 3.0 0.00 0.00 0.00 86 1014.0
20240614221905 63 37 2.0 4.0 0.00 0.00 0.00 86 1014.2
20240614220418 63 38 1.0 3.0 0.00 0.00 0.00 86 1014.3
20240614214910 64 38 2.0 3.0 0.00 0.00 0.00 86 1014.5
20240614213410 64 32 2.0 3.0 0.00 0.00 0.00 85 1014.5
20240614211917 64 46 3.0 4.0 0.00 0.00 0.00 85 1014.7
20240614210411 63 42 0.0 0.0 0.00 0.00 0.00 86 1014.6
20240614204920 64 42 0.0 0.0 0.00 0.00 0.00 85 1014.7
20240614203413 64 42 0.0 4.0 0.00 0.00 0.00 85 1014.8
20240614201906 64 32 3.0 5.0 0.00 0.00 0.00 85 1014.7
20240614200420 64 33 3.0 5.0 0.00 0.00 0.00 84 1014.8
20240614194918 64 18 3.0 5.0 0.00 0.00 0.00 84 1014.8
20240614193409 65 9 2.0 5.0 0.00 0.00 0.00 83 1014.7
20240614191904 65 73 1.0 5.0 0.00 0.00 0.00 83 1014.7
20240614190403 65 76 5.0 9.0 0.00 0.00 0.00 83 1014.5
20240614184903 65 67 4.0 8.0 0.00 0.00 0.00 83 1014.5
20240614183416 65 60 4.0 8.0 0.00 0.00 0.00 82 1014.8
20240614181908 66 61 3.0 5.0 0.00 0.00 0.00 82 1014.8
20240614180411 66 71 2.0 5.0 0.00 0.00 0.00 82 1014.8
20240614174907 66 24 1.0 5.0 0.00 0.00 0.00 82 1015.0
20240614173405 66 55 3.0 5.0 0.00 0.00 0.00 82 1015.0
20240614171904 66 69 4.0 6.0 0.00 0.00 0.00 82 1015.0
20240614170417 66 50 3.0 5.0 0.00 0.00 0.00 83 1015.1
20240614164912 66 61 2.0 5.0 0.00 0.00 0.00 83 1015.2
20240614163409 66 59 3.0 5.0 0.00 0.00 0.00 82 1015.4
20240614161906 67 90 3.0 5.0 0.00 0.00 0.00 80 1015.3
20240614160405 67 101 3.0 5.0 0.00 0.00 0.00 80 1015.3
20240614154917 67 119 2.0 4.0 0.00 0.00 0.00 79 1015.4
20240614153414 68 119 3.0 5.0 0.00 0.00 0.00 75 1015.4
20240614151912 68 110 2.0 7.0 0.00 0.00 0.00 74 1015.3
20240614150407 69 103 3.0 7.0 0.00 0.00 0.00 75 1015.3
20240614144901 69 119 4.0 6.0 0.00 0.00 0.00 74 1015.5
20240614143418 69 51 3.0 5.0 0.00 0.00 0.00 72 1015.6
20240614141859 70 110 1.0 5.0 0.00 0.00 0.00 70 1015.5
20240614140417 70 282 2.0 3.0 0.00 0.00 0.00 68 1015.6
20240614134913 69 212 1.0 5.0 0.00 0.00 0.00 68 1015.6
20240614133411 69 213 0.0 5.0 0.00 0.00 0.00 69 1015.7
20240614131907 70 225 2.0 4.0 0.00 0.00 0.00 68 1015.8
20240614130420 70 218 1.0 5.0 0.00 0.00 0.00 67 1015.7
20240614124919 71 213 3.0 7.0 0.00 0.00 0.00 67 1015.5
20240614123417 70 199 6.0 9.0 0.00 0.00 0.00 70 1015.7
20240614121903 70 141 1.0 5.0 0.00 0.00 0.00 66 1015.7
20240614120419 70 100 2.0 4.0 0.00 0.00 0.00 67 1015.7
20240614114918 69 229 2.0 5.0 0.00 0.00 0.00 68 1015.8
20240614113415 69 207 0.0 0.0 0.00 0.00 0.00 72 1016.0
20240614111918 68 207 0.0 2.0 0.00 0.00 0.00 71 1016.0
20240614110402 68 207 0.0 5.0 0.00 0.00 0.00 71 1016.0
20240614105036 68 279 2.0 5.0 0.00 0.00 0.00 70 1016.0
20240614103415 69 229 2.0 4.0 0.00 0.00 0.00 72 1016.1
20240614101912 68 198 3.0 6.0 0.00 0.00 0.00 72 1016.1
20240614100411 68 205 3.0 5.0 0.00 0.00 0.00 73 1016.1
20240614094911 68 340 0.0 5.0 0.00 0.00 0.00 73 1016.1
20240614093410 68 288 4.0 6.0 0.00 0.00 0.00 73 1016.0
20240614091911 67 241 0.0 6.0 0.00 0.00 0.00 74 1016.0
20240614090408 67 249 2.0 6.0 0.00 0.00 0.00 74 1015.9
20240614084908 67 238 0.0 4.0 0.00 0.00 0.00 75 1015.8
20240614083407 66 222 1.0 7.0 0.00 0.00 0.00 76 1016.0
20240614081903 66 212 1.0 3.0 0.00 0.00 0.00 77 1015.9